Time;durP1;ratioP1;P1;durP2;ratioP2;P2;SDS_P1;SDS_P2;PMS_P1;PMS_P2;Temp;Humidity;BMP_temperature;BMP_pressure;BME280_temperature;BME280_humidity;BME280_pressure;Samples;Min_cycle;Max_cycle;Signal;HPM_P1;HPM_P2
2021/04/11 00:01:40;;;;;;;5.33;3.60;;;13.90;85.70;;;;;;5077572;28;20300;-62
2021/04/11 00:04:07;;;;;;;6.90;3.50;;;13.80;86.10;;;;;;5077190;28;20718;-61
2021/04/11 00:06:34;;;;;;;3.93;3.37;;;13.70;86.80;;;;;;5077519;28;20738;-61
2021/04/11 00:09:00;;;;;;;5.47;3.20;;;13.50;87.40;;;;;;5077725;28;20231;-61
2021/04/11 00:11:27;;;;;;;3.83;2.80;;;13.40;87.50;;;;;;5077478;28;20208;-61
2021/04/11 00:13:56;;;;;;;3.10;2.60;;;13.30;87.40;;;;;;5077567;28;20330;-61
2021/04/11 00:16:22;;;;;;;5.23;3.30;;;13.10;88.40;;;;;;5077250;28;20676;-61
2021/04/11 00:18:48;;;;;;;5.33;3.10;;;13.00;88.50;;;;;;5076992;28;20668;-60
2021/04/11 00:21:15;;;;;;;7.17;3.37;;;12.90;89.10;;;;;;5077181;28;20209;-60
2021/04/11 00:23:42;;;;;;;5.57;3.17;;;12.80;89.40;;;;;;5077335;28;20696;-61
2021/04/11 00:26:09;;;;;;;4.47;2.93;;;12.80;89.50;;;;;;5077301;28;20596;-60
2021/04/11 00:28:35;;;;;;;3.97;3.03;;;12.70;89.90;;;;;;5077112;28;20355;-60
2021/04/11 00:31:02;;;;;;;4.60;3.13;;;12.60;90.00;;;;;;5077087;28;20204;-61
2021/04/11 00:33:30;;;;;;;7.27;3.20;;;12.60;89.90;;;;;;5076931;28;20224;-61
2021/04/11 00:35:58;;;;;;;5.00;3.20;;;12.60;90.10;;;;;;5077227;28;20207;-61
2021/04/11 00:38:26;;;;;;;6.17;3.50;;;12.60;90.20;;;;;;5076944;28;20196;-61
2021/04/11 00:40:57;;;;;;;5.30;3.17;;;12.60;90.30;;;;;;5076801;28;20703;-61
2021/04/11 00:43:24;;;;;;;7.53;3.57;;;12.50;90.40;;;;;;5076667;28;20599;-61
2021/04/11 00:45:56;;;;;;;5.27;3.10;;;12.50;90.50;;;;;;5077005;28;20205;-60
2021/04/11 00:48:26;;;;;;;6.47;3.30;;;12.50;90.50;;;;;;5076819;28;20225;-61
2021/04/11 00:50:54;;;;;;;4.57;3.47;;;12.50;90.60;;;;;;5076744;28;20211;-61
2021/04/11 00:53:21;;;;;;;3.60;3.10;;;12.50;90.60;;;;;;5077040;28;20259;-61
2021/04/11 00:55:47;;;;;;;5.30;3.30;;;12.40;90.70;;;;;;5076811;28;20625;-61
2021/04/11 00:58:15;;;;;;;4.50;2.90;;;12.40;90.50;;;;;;5076721;28;20205;-61
2021/04/11 01:00:41;;;;;;;4.97;2.37;;;12.30;89.50;;;;;;5077011;28;20530;-61
2021/04/11 01:03:08;;;;;;;7.50;2.30;;;12.20;87.50;;;;;;5076742;28;20243;-61
2021/04/11 01:05:39;;;;;;;5.13;1.90;;;12.20;86.50;;;;;;5076469;28;20219;-60
2021/04/11 01:08:10;;;;;;;2.77;1.70;;;12.20;85.40;;;;;;5074195;28;20225;-61
2021/04/11 01:10:40;;;;;;;3.03;2.13;;;12.20;84.70;;;;;;5073747;28;20209;-61
2021/04/11 01:13:06;;;;;;;3.87;2.23;;;12.20;84.50;;;;;;5073469;28;20225;-61
2021/04/11 01:15:34;;;;;;;3.10;1.73;;;12.10;84.50;;;;;;5073376;28;20201;-60
2021/04/11 01:18:01;;;;;;;3.00;1.87;;;12.10;84.60;;;;;;5073664;28;20205;-61
2021/04/11 01:20:28;;;;;;;3.37;2.10;;;12.00;84.30;;;;;;5073815;28;20205;-62
2021/04/11 01:23:16;;;;;;;3.67;1.60;;;12.10;83.90;;;;;;5073254;28;20747;-61
2021/04/11 01:25:44;;;;;;;3.00;1.60;;;12.10;83.70;;;;;;5073463;28;20288;-62
2021/04/11 01:28:15;;;;;;;3.77;1.63;;;12.20;83.80;;;;;;5073403;28;20278;-59
2021/04/11 01:30:42;;;;;;;3.10;1.50;;;12.10;84.10;;;;;;5073642;28;20356;-60
2021/04/11 01:33:12;;;;;;;3.60;1.90;;;12.10;84.30;;;;;;5073190;28;20763;-59
2021/04/11 01:35:39;;;;;;;2.70;1.93;;;12.10;84.30;;;;;;5073467;28;20220;-59
2021/04/11 01:38:07;;;;;;;4.43;1.97;;;12.10;84.90;;;;;;5073245;28;20201;-59
2021/04/11 01:40:39;;;;;;;2.07;1.80;;;12.10;85.80;;;;;;5073132;28;20201;-59
2021/04/11 01:43:08;;;;;;;3.47;1.77;;;12.10;85.30;;;;;;5072886;28;20297;-60
2021/04/11 01:45:36;;;;;;;6.13;2.23;;;12.10;85.30;;;;;;5072942;28;20274;-60
2021/04/11 01:48:04;;;;;;;3.27;2.17;;;12.10;85.70;;;;;;5072677;28;20607;-60
2021/04/11 01:50:30;;;;;;;6.70;2.37;;;12.10;86.20;;;;;;5072917;28;20209;-59
2021/04/11 01:52:58;;;;;;;4.90;2.37;;;12.20;86.50;;;;;;5072693;28;20727;-59
2021/04/11 01:55:26;;;;;;;4.73;2.20;;;12.20;86.90;;;;;;5072366;28;20623;-59
2021/04/11 01:57:54;;;;;;;4.10;2.10;;;12.20;86.90;;;;;;5072499;28;20201;-59
2021/04/11 02:00:25;;;;;;;5.50;2.33;;;12.20;86.90;;;;;;5072732;28;20366;-59
2021/04/11 02:02:54;;;;;;;4.83;2.07;;;12.10;87.00;;;;;;5072528;28;20233;-59
2021/04/11 02:05:21;;;;;;;4.10;2.17;;;12.10;87.10;;;;;;5072341;28;20236;-59
2021/04/11 02:07:48;;;;;;;4.20;2.33;;;12.10;87.10;;;;;;5072253;28;20243;-59
2021/04/11 02:10:18;;;;;;;2.53;2.00;;;12.20;87.20;;;;;;5072644;28;20212;-59
2021/04/11 02:12:45;;;;;;;4.40;2.30;;;12.20;87.50;;;;;;5072757;28;20227;-59
2021/04/11 02:15:16;;;;;;;4.70;2.23;;;12.20;87.70;;;;;;5072425;28;20209;-59
2021/04/11 02:17:43;;;;;;;4.17;2.40;;;12.20;87.50;;;;;;5072616;28;20267;-59
2021/04/11 02:20:11;;;;;;;3.53;2.27;;;12.30;87.50;;;;;;5071933;28;20209;-59
2021/04/11 02:22:39;;;;;;;3.40;2.40;;;12.40;87.50;;;;;;5071986;28;20229;-59
2021/04/11 02:25:07;;;;;;;4.50;2.20;;;12.40;87.60;;;;;;5072195;28;20213;-59
2021/04/11 02:27:34;;;;;;;5.43;2.33;;;12.40;88.00;;;;;;5072084;28;20217;-58
2021/04/11 02:30:04;;;;;;;3.03;2.30;;;12.40;88.10;;;;;;5072012;28;20590;-59
2021/04/11 02:32:31;;;;;;;5.03;2.43;;;12.40;88.40;;;;;;5072511;28;20236;-59
2021/04/11 02:35:01;;;;;;;2.53;2.13;;;12.40;88.80;;;;;;5071704;28;20201;-60
2021/04/11 02:37:31;;;;;;;4.47;2.20;;;12.40;90.00;;;;;;5072225;28;20597;-59
2021/04/11 02:39:59;;;;;;;3.80;2.30;;;12.40;90.20;;;;;;5071991;28;20212;-62
2021/04/11 02:42:28;;;;;;;5.43;2.80;;;12.40;90.50;;;;;;5071982;28;20229;-60
2021/04/11 02:44:56;;;;;;;6.77;2.50;;;12.40;90.60;;;;;;5071833;28;20262;-60
2021/04/11 02:47:22;;;;;;;4.20;2.43;;;12.40;90.70;;;;;;5071788;28;20205;-60
2021/04/11 02:49:51;;;;;;;3.77;2.50;;;12.40;90.80;;;;;;5071684;28;20212;-61
2021/04/11 02:52:23;;;;;;;4.23;2.70;;;12.40;90.90;;;;;;5071975;28;20211;-60
2021/04/11 02:54:49;;;;;;;2.87;2.47;;;12.40;91.10;;;;;;5072037;28;20254;-60
2021/04/11 02:57:18;;;;;;;3.77;2.37;;;12.40;91.50;;;;;;5071692;28;20209;-60
2021/04/11 02:59:45;;;;;;;4.00;2.40;;;12.30;91.60;;;;;;5071539;28;20204;-60
2021/04/11 03:02:13;;;;;;;4.90;2.47;;;12.30;91.70;;;;;;5071480;28;20676;-60
2021/04/11 03:04:39;;;;;;;3.80;1.93;;;12.30;91.80;;;;;;5072454;28;20209;-60
2021/04/11 03:07:10;;;;;;;3.43;2.27;;;12.30;91.80;;;;;;5071718;28;20200;-59
2021/04/11 03:09:43;;;;;;;5.13;2.70;;;12.30;91.90;;;;;;5071471;28;20201;-60
2021/04/11 03:12:11;;;;;;;4.07;2.43;;;12.30;91.80;;;;;;5071273;28;20205;-60
2021/04/11 03:14:40;;;;;;;4.97;2.50;;;12.30;91.90;;;;;;5071028;28;20208;-60
2021/04/11 03:17:11;;;;;;;6.90;2.47;;;12.20;92.10;;;;;;5071334;28;20205;-60
2021/04/11 03:19:49;;;;;;;4.07;2.80;;;12.10;92.50;;;;;;5071395;28;20342;-60
2021/04/11 03:22:16;;;;;;;4.23;2.50;;;12.00;92.90;;;;;;5071474;28;20231;-60
2021/04/11 03:24:43;;;;;;;4.27;2.40;;;11.90;93.30;;;;;;5070995;28;20205;-60
2021/04/11 03:27:14;;;;;;;5.93;3.30;;;11.90;93.50;;;;;;5071050;28;20209;-61
2021/04/11 03:29:46;;;;;;;6.27;3.40;;;11.80;93.70;;;;;;5070867;28;20692;-61
2021/04/11 03:32:18;;;;;;;6.13;3.10;;;11.80;93.60;;;;;;5070438;28;20212;-60
2021/04/11 03:34:46;;;;;;;4.83;3.03;;;11.90;93.70;;;;;;5070939;28;20208;-60
2021/04/11 03:37:15;;;;;;;3.97;2.93;;;11.70;93.90;;;;;;5070975;28;20205;-60
2021/04/11 03:39:41;;;;;;;5.97;2.80;;;11.70;94.20;;;;;;5070855;28;20575;-60
2021/04/11 03:42:13;;;;;;;4.70;2.80;;;11.70;94.20;;;;;;5070914;28;20209;-59
2021/04/11 03:44:39;;;;;;;4.47;2.70;;;11.70;94.10;;;;;;5070776;28;20205;-60
2021/04/11 03:47:11;;;;;;;2.97;2.47;;;11.80;94.20;;;;;;5071004;28;20255;-60
2021/04/11 03:49:44;;;;;;;4.87;2.27;;;11.80;94.10;;;;;;5070767;28;20229;-61
2021/04/11 03:52:15;;;;;;;4.73;3.00;;;11.90;94.20;;;;;;5070866;28;20611;-60
2021/04/11 03:54:43;;;;;;;5.83;2.93;;;11.90;94.30;;;;;;5070802;28;20208;-60
2021/04/11 03:57:22;;;;;;;6.20;2.60;;;12.00;94.10;;;;;;5071225;28;20208;-60
2021/04/11 03:59:51;;;;;;;3.80;2.60;;;11.90;94.30;;;;;;5071051;28;20204;-61
2021/04/11 04:02:20;;;;;;;3.87;2.30;;;11.90;94.30;;;;;;5070504;28;20262;-60
2021/04/11 04:04:47;;;;;;;5.67;2.60;;;11.90;94.30;;;;;;5071015;28;20231;-60
2021/04/11 04:07:15;;;;;;;4.47;2.50;;;11.90;94.30;;;;;;5070829;28;20213;-60
2021/04/11 04:09:43;;;;;;;3.70;2.33;;;12.00;94.30;;;;;;5070650;28;20201;-61
2021/04/11 04:12:46;;;;;;;4.23;2.40;;;11.90;94.30;;;;;;5070553;28;20205;-61
2021/04/11 04:15:39;;;;;;;3.17;2.27;;;11.90;94.50;;;;;;5070314;28;20207;-61
2021/04/11 04:18:35;;;;;;;3.27;2.00;;;11.80;94.50;;;;;;5067810;28;20208;-61
2021/04/11 04:21:12;;;;;;;3.37;2.40;;;11.70;94.80;;;;;;5070534;28;20204;-61
2021/04/11 04:23:48;;;;;;;3.73;2.90;;;11.70;95.00;;;;;;5070306;28;20228;-61
2021/04/11 04:26:34;;;;;;;5.70;2.57;;;11.80;94.90;;;;;;5070599;28;20204;-61
2021/04/11 04:29:21;;;;;;;4.30;2.00;;;11.70;94.80;;;;;;5070605;28;20231;-61
2021/04/11 04:32:07;;;;;;;15.40;12.33;;;11.70;95.10;;;;;;5070368;28;20243;-60
2021/04/11 04:34:39;;;;;;;3.93;2.80;;;11.70;94.90;;;;;;5070270;28;20258;-60
2021/04/11 04:37:16;;;;;;;5.63;3.73;;;11.80;94.90;;;;;;5070468;28;20223;-60
2021/04/11 04:39:52;;;;;;;6.23;5.13;;;11.80;94.90;;;;;;5070451;28;20208;-60
2021/04/11 04:42:28;;;;;;;4.60;3.57;;;11.80;94.90;;;;;;5070744;28;20212;-60
2021/04/11 04:45:05;;;;;;;3.67;2.50;;;11.80;94.80;;;;;;5074305;28;20208;-60
2021/04/11 04:47:46;;;;;;;3.63;2.13;;;11.90;94.50;;;;;;5074063;28;20212;-60
2021/04/11 04:50:20;;;;;;;4.00;2.70;;;12.00;94.50;;;;;;5074423;28;20217;-60
2021/04/11 04:53:01;;;;;;;5.37;2.87;;;12.00;94.30;;;;;;5074186;28;20232;-61
2021/04/11 04:55:27;;;;;;;2.87;1.93;;;12.10;94.30;;;;;;5073981;28;20209;-60
2021/04/11 04:57:58;;;;;;;4.70;1.70;;;12.10;94.40;;;;;;5073792;28;20205;-60
2021/04/11 05:00:31;;;;;;;2.67;2.17;;;12.10;94.30;;;;;;5073807;28;20204;-60
2021/04/11 05:03:02;;;;;;;5.47;2.13;;;12.00;94.30;;;;;;5073519;28;20278;-60
2021/04/11 05:05:30;;;;;;;3.50;2.10;;;12.00;94.30;;;;;;5073829;28;20209;-61
2021/04/11 05:08:02;;;;;;;4.17;2.83;;;12.10;94.10;;;;;;5073958;28;20480;-61
2021/04/11 05:10:37;;;;;;;4.37;3.30;;;12.20;94.10;;;;;;5073943;28;20205;-61
2021/04/11 05:13:08;;;;;;;4.43;2.87;;;12.20;94.10;;;;;;5073576;28;20231;-61
2021/04/11 05:15:39;;;;;;;4.00;2.87;;;12.30;94.10;;;;;;5073357;28;20213;-61
2021/04/11 05:18:13;;;;;;;5.03;3.23;;;12.40;94.20;;;;;;5073540;28;20197;-61
2021/04/11 05:20:43;;;;;;;4.90;3.27;;;12.50;94.30;;;;;;5073547;28;20212;-61
2021/04/11 05:23:16;;;;;;;4.10;2.80;;;12.60;94.40;;;;;;5073380;28;20220;-61
2021/04/11 05:25:50;;;;;;;5.03;2.80;;;12.60;94.60;;;;;;5073243;28;20609;-61
2021/04/11 05:28:24;;;;;;;5.23;3.83;;;12.70;94.10;;;;;;5073236;28;20278;-61
2021/04/11 05:30:58;;;;;;;4.33;2.70;;;12.70;93.90;;;;;;5073366;28;20579;-61
2021/04/11 05:33:25;;;;;;;2.30;2.03;;;12.80;93.60;;;;;;5073111;28;20231;-61
2021/04/11 05:36:00;;;;;;;3.10;2.23;;;12.90;93.40;;;;;;5073124;28;20628;-61
2021/04/11 05:38:33;;;;;;;5.43;2.93;;;12.90;93.10;;;;;;5073016;28;20196;-61
2021/04/11 05:41:06;;;;;;;5.40;3.30;;;13.00;92.90;;;;;;5073202;28;20212;-61
2021/04/11 05:43:40;;;;;;;3.83;2.40;;;13.10;92.80;;;;;;5073028;28;20241;-61
2021/04/11 05:46:13;;;;;;;5.50;4.00;;;13.30;92.50;;;;;;5073084;28;20205;-60
2021/04/11 05:48:47;;;;;;;3.30;2.10;;;13.50;92.00;;;;;;5072703;28;20731;-60
2021/04/11 05:51:17;;;;;;;5.07;3.80;;;13.60;91.80;;;;;;5073058;28;20270;-60
2021/04/11 05:53:48;;;;;;;6.43;2.47;;;13.80;91.40;;;;;;5072415;28;20302;-60
2021/04/11 05:56:19;;;;;;;3.73;2.30;;;13.90;91.20;;;;;;5072506;28;20745;-61
2021/04/11 05:58:51;;;;;;;5.30;3.70;;;13.90;91.10;;;;;;5072913;28;20197;-60
2021/04/11 06:01:21;;;;;;;5.77;2.77;;;14.00;91.00;;;;;;5072594;28;20210;-60
2021/04/11 06:03:53;;;;;;;3.67;3.10;;;14.10;91.00;;;;;;5073058;28;20243;-61
2021/04/11 06:06:25;;;;;;;4.53;3.40;;;14.10;90.80;;;;;;5072782;28;20220;-60
2021/04/11 06:08:59;;;;;;;5.00;3.70;;;14.10;90.60;;;;;;5072313;28;20231;-61
2021/04/11 06:11:33;;;;;;;5.53;3.07;;;14.20;90.60;;;;;;5072619;28;20704;-60
2021/04/11 06:14:05;;;;;;;4.63;2.43;;;14.20;90.60;;;;;;5072407;28;20487;-60
2021/04/11 06:16:34;;;;;;;4.30;2.77;;;14.30;90.70;;;;;;5072836;28;20205;-61
2021/04/11 06:19:05;;;;;;;4.63;2.20;;;14.30;90.60;;;;;;5072181;28;20205;-60
2021/04/11 06:21:39;;;;;;;2.93;2.43;;;14.40;90.60;;;;;;5072342;28;20201;-61
2021/04/11 06:24:17;;;;;;;3.40;2.40;;;14.30;90.60;;;;;;5071911;28;20236;-60
2021/04/11 06:26:49;;;;;;;4.37;2.30;;;14.10;90.30;;;;;;5072353;28;20224;-60
2021/04/11 06:29:19;;;;;;;4.03;2.40;;;14.00;90.50;;;;;;5072220;28;20248;-61
2021/04/11 06:31:49;;;;;;;5.83;2.83;;;14.00;90.40;;;;;;5072201;28;20223;-60
2021/04/11 06:34:20;;;;;;;3.40;2.73;;;14.20;90.40;;;;;;5071962;28;20224;-62
2021/04/11 06:36:50;;;;;;;5.43;3.00;;;14.40;90.20;;;;;;5071919;28;20209;-61
2021/04/11 06:39:20;;;;;;;5.63;2.87;;;14.60;90.00;;;;;;5072095;28;20205;-60
2021/04/11 06:42:20;;;;;;;4.93;3.03;;;14.80;89.80;;;;;;5072096;28;20233;-61
2021/04/11 06:45:05;;;;;;;4.23;2.57;;;14.90;89.50;;;;;;5058974;28;20212;-60
2021/04/11 06:48:01;;;;;;;5.23;2.70;;;15.10;88.70;;;;;;5071440;28;20205;-61
2021/04/11 06:50:43;;;;;;;5.27;2.70;;;15.20;87.20;;;;;;5071928;28;20243;-61
2021/04/11 06:53:42;;;;;;;3.63;2.07;;;15.50;86.10;;;;;;5071599;28;20233;-61
2021/04/11 06:56:30;;;;;;;4.00;2.70;;;16.10;83.60;;;;;;5071075;28;20205;-60
2021/04/11 06:59:06;;;;;;;5.00;2.33;;;16.70;81.90;;;;;;5071471;28;20204;-61
2021/04/11 07:02:21;;;;;;;4.23;2.20;;;17.00;79.30;;;;;;5071439;28;20212;-61
2021/04/11 07:05:12;;;;;;;4.10;2.10;;;17.20;77.90;;;;;;5071674;28;20205;-61
2021/04/11 07:08:32;;;;;;;2.60;1.87;;;17.30;77.70;;;;;;5070595;28;20223;-61
2021/04/11 07:11:34;;;;;;;4.87;2.03;;;17.30;76.30;;;;;;5071439;28;20204;-61
2021/04/11 07:14:32;;;;;;;3.20;2.00;;;17.30;76.30;;;;;;5068393;28;20699;-61
2021/04/11 07:17:22;;;;;;;3.50;1.80;;;17.20;76.40;;;;;;5071398;28;20200;-61
2021/04/11 07:20:09;;;;;;;2.33;1.60;;;17.10;76.70;;;;;;5071227;28;20220;-61
2021/04/11 07:23:00;;;;;;;2.60;1.77;;;17.20;77.10;;;;;;5071273;28;20271;-61
2021/04/11 07:25:51;;;;;;;2.03;1.77;;;17.20;77.00;;;;;;5071018;28;20216;-62
2021/04/11 07:28:28;;;;;;;1.67;1.43;;;17.10;77.00;;;;;;5071260;28;20224;-62
2021/04/11 07:31:06;;;;;;;3.77;1.97;;;17.10;77.50;;;;;;5071074;28;20204;-60
2021/04/11 07:34:04;;;;;;;5.20;2.20;;;17.00;77.80;;;;;;5070998;28;20236;-55
2021/04/11 07:36:57;;;;;;;4.03;1.67;;;17.00;77.30;;;;;;5065838;28;20234;-57
2021/04/11 07:39:41;;;;;;;5.50;1.87;;;17.10;77.10;;;;;;5070538;28;20279;-56
2021/04/11 07:42:42;;;;;;;3.57;1.80;;;17.10;77.00;;;;;;5070965;28;20204;-57
2021/04/11 07:45:49;;;;;;;4.20;1.83;;;17.10;76.70;;;;;;5070687;28;20216;-57
2021/04/11 07:48:45;;;;;;;3.70;2.00;;;17.10;76.10;;;;;;5071599;28;20287;-54
2021/04/11 07:51:28;;;;;;;4.07;2.27;;;17.30;75.90;;;;;;5070894;28;20204;-54
2021/04/11 07:54:12;;;;;;;3.70;1.90;;;17.40;76.30;;;;;;5070680;28;20307;-55
2021/04/11 07:56:57;;;;;;;3.47;1.90;;;17.40;76.10;;;;;;5071495;28;20216;-55
2021/04/11 07:59:41;;;;;;;3.33;2.50;;;17.50;76.10;;;;;;5070963;28;20201;-54
2021/04/11 08:02:32;;;;;;;4.00;3.00;;;17.50;76.10;;;;;;5070749;28;20661;-54
2021/04/11 08:05:30;;;;;;;6.00;2.10;;;17.50;76.60;;;;;;5071039;28;20612;-54
2021/04/11 08:08:04;;;;;;;7.13;2.87;;;17.60;76.70;;;;;;5070630;28;20303;-55
2021/04/11 08:10:52;;;;;;;3.60;2.40;;;17.90;75.90;;;;;;5071024;28;20208;-55
2021/04/11 08:13:50;;;;;;;3.27;1.73;;;18.10;73.80;;;;;;5071028;28;20235;-55
2021/04/11 08:16:46;;;;;;;3.83;3.27;;;18.30;73.50;;;;;;5057228;28;20209;-55
2021/04/11 08:19:34;;;;;;;5.57;2.20;;;18.40;73.10;;;;;;5074646;28;20204;-55
2021/04/11 08:22:09;;;;;;;2.27;1.53;;;18.70;72.70;;;;;;5075255;28;20623;-55
2021/04/11 08:24:47;;;;;;;3.03;1.67;;;19.00;71.90;;;;;;5075208;28;20215;-55
2021/04/11 08:27:55;;;;;;;4.30;2.55;;;19.30;71.50;;;;;;5074739;28;20592;-55
2021/04/11 08:30:39;;;;;;;3.83;2.15;;;19.40;71.00;;;;;;5074379;28;20205;-57
2021/04/11 08:33:21;;;;;;;4.65;2.97;;;19.70;71.10;;;;;;5074326;28;20290;-53
2021/04/11 08:36:09;;;;;;;2.85;1.83;;;19.90;68.80;;;;;;5074279;28;20207;-54
2021/04/11 08:39:13;;;;;;;3.05;1.60;;;20.20;68.20;;;;;;5074334;28;20200;-55
2021/04/11 08:41:53;;;;;;;10.60;1.30;;;20.40;64.40;;;;;;5043076;28;20200;-55
2021/04/11 08:44:38;;;;;;;2.42;1.50;;;20.80;63.40;;;;;;5073968;28;20229;-55
2021/04/11 08:47:16;;;;;;;1.98;1.02;;;21.30;62.70;;;;;;5073962;28;20201;-55
2021/04/11 08:49:46;;;;;;;2.60;1.73;;;21.70;61.50;;;;;;5073824;28;20225;-55
2021/04/11 08:52:27;;;;;;;2.78;1.80;;;22.10;60.70;;;;;;5073845;28;20265;-55
2021/04/11 08:55:04;;;;;;;3.80;1.23;;;22.40;59.40;;;;;;5074206;28;20295;-55
2021/04/11 08:57:45;;;;;;;3.05;1.40;;;22.90;58.70;;;;;;5073941;28;20215;-54
2021/04/11 09:00:19;;;;;;;2.08;1.05;;;23.30;58.20;;;;;;5073708;28;20205;-54
2021/04/11 09:03:06;;;;;;;2.50;1.63;;;23.80;56.50;;;;;;5100366;22;20224;-66
2021/04/11 09:05:40;;;;;;;3.65;1.27;;;24.20;56.10;;;;;;5095038;28;20196;-65
2021/04/11 09:08:15;;;;;;;2.42;1.10;;;24.40;55.10;;;;;;5096698;28;20319;-73
2021/04/11 09:10:58;;;;;;;2.72;1.50;;;24.50;54.40;;;;;;5096219;28;20203;-71
2021/04/11 09:13:39;;;;;;;6.88;3.63;;;24.60;54.20;;;;;;5095798;28;20281;-71
2021/04/11 09:16:12;;;;;;;2.35;1.10;;;24.70;54.40;;;;;;5095327;28;20188;-72
2021/04/11 09:18:54;;;;;;;1.52;1.17;;;24.70;53.80;;;;;;5096481;28;20204;-71
2021/04/11 09:22:00;;;;;;;2.17;1.20;;;24.50;53.70;;;;;;5097068;28;20223;-72
2021/04/11 09:24:33;;;;;;;2.15;1.25;;;24.50;53.50;;;;;;5082501;28;20235;-71
2021/04/11 09:27:33;;;;;;;4.38;1.77;;;24.50;53.60;;;;;;5095896;28;20208;-71
2021/04/11 09:30:06;;;;;;;3.00;1.17;;;24.30;54.00;;;;;;5094440;28;20779;-71
2021/04/11 09:33:02;;;;;;;3.35;1.90;;;24.20;53.80;;;;;;5096401;28;20208;-71
2021/04/11 09:35:35;;;;;;;2.70;1.92;;;24.20;54.20;;;;;;5095168;28;20230;-72
2021/04/11 09:38:26;;;;;;;1.77;1.30;;;24.10;53.90;;;;;;5095117;28;20404;-71
2021/04/11 09:41:14;;;;;;;2.25;1.20;;;24.00;54.00;;;;;;5096379;28;20667;-71
2021/04/11 09:44:10;;;;;;;2.13;1.20;;;24.00;54.00;;;;;;5062710;28;20228;-74
2021/04/11 09:47:09;;;;;;;4.47;1.30;;;24.10;53.90;;;;;;5096144;28;20208;-73
2021/04/11 09:49:50;;;;;;;4.78;1.58;;;24.10;53.80;;;;;;5096104;28;20660;-73
2021/04/11 09:52:34;;;;;;;3.53;1.45;;;24.10;53.60;;;;;;5095593;28;20204;-71
2021/04/11 09:55:10;;;;;;;1.65;1.20;;;23.80;54.00;;;;;;5095802;28;20204;-72
2021/04/11 09:57:57;;;;;;;3.05;1.20;;;23.80;54.20;;;;;;5096358;28;20230;-72
2021/04/11 10:00:31;;;;;;;2.83;1.40;;;23.50;54.30;;;;;;5096938;28;20185;-71
2021/04/11 10:03:23;;;;;;;2.30;1.58;;;23.40;54.50;;;;;;5095945;28;20232;-71
2021/04/11 10:06:04;;;;;;;3.20;1.20;;;23.40;54.40;;;;;;5095872;28;20204;-71
2021/04/11 10:09:02;;;;;;;2.83;1.27;;;23.60;54.30;;;;;;5095797;28;20192;-72
2021/04/11 10:11:43;;;;;;;3.13;1.50;;;24.00;54.00;;;;;;5095854;28;20197;-72
2021/04/11 10:14:18;;;;;;;5.75;2.70;;;24.30;53.40;;;;;;5096089;28;20234;-70
2021/04/11 10:16:57;;;;;;;2.33;1.00;;;24.10;53.50;;;;;;5096635;28;20211;-72
2021/04/11 10:19:39;;;;;;;3.17;1.90;;;24.00;53.70;;;;;;5096124;28;20230;-72
2021/04/11 10:22:40;;;;;;;3.90;1.45;;;24.10;53.70;;;;;;5096918;28;20644;-69
2021/04/11 10:25:31;;;;;;;1.83;1.60;;;24.20;53.00;;;;;;5095724;28;20203;-70
2021/04/11 10:28:11;;;;;;;2.80;1.70;;;24.40;53.00;;;;;;5096740;28;20192;-71
2021/04/11 10:30:39;;;;;;;3.33;1.70;;;24.60;52.60;;;;;;5097941;28;20192;-71
2021/04/11 10:33:12;;;;;;;4.65;1.40;;;24.70;52.50;;;;;;5097837;28;20235;-70
2021/04/11 10:35:48;;;;;;;2.55;1.30;;;24.70;52.10;;;;;;5097262;28;20219;-70
2021/04/11 10:38:22;;;;;;;2.03;1.23;;;25.00;51.80;;;;;;5095327;28;20209;-70
2021/04/11 10:41:14;;;;;;;4.18;1.20;;;25.10;51.30;;;;;;5095664;28;20208;-73
2021/04/11 10:44:07;;;;;;;2.17;1.27;;;25.20;51.20;;;;;;5094557;28;20228;-72
2021/04/11 10:46:47;;;;;;;5.20;1.55;;;25.40;51.20;;;;;;5086890;28;20658;-71
2021/04/11 10:49:26;;;;;;;3.72;2.22;;;25.40;50.50;;;;;;5096750;28;20185;-72
2021/04/11 10:52:17;;;;;;;1.75;1.10;;;25.30;51.00;;;;;;5094837;28;20204;-71
2021/04/11 10:55:16;;;;;;;2.55;1.40;;;25.20;50.30;;;;;;5094229;28;20652;-70
2021/04/11 10:58:04;;;;;;;3.65;1.42;;;25.20;50.40;;;;;;5094471;28;20643;-71
2021/04/11 11:00:37;;;;;;;4.03;1.30;;;25.40;49.80;;;;;;5095179;28;20249;-71
2021/04/11 11:03:46;;;;;;;3.00;1.50;;;25.60;49.00;;;;;;5094862;28;20243;-72
2021/04/11 11:06:38;;;;;;;5.22;2.10;;;25.70;48.70;;;;;;5095539;28;20208;-71
2021/04/11 11:09:17;;;;;;;4.82;1.60;;;25.80;48.30;;;;;;5097491;28;20197;-71
2021/04/11 11:12:28;;;;;;;3.90;1.50;;;25.70;48.20;;;;;;5096148;28;20188;-71
2021/04/11 11:15:06;;;;;;;2.38;1.17;;;25.60;48.00;;;;;;5093352;28;20211;-71
2021/04/11 11:17:50;;;;;;;2.63;1.10;;;25.20;48.50;;;;;;5093031;28;20204;-71
2021/04/11 11:20:21;;;;;;;2.85;1.30;;;25.10;48.80;;;;;;5093180;28;20224;-71
2021/04/11 11:23:05;;;;;;;1.88;1.20;;;25.10;48.50;;;;;;5093118;28;20242;-71
2021/04/11 11:25:49;;;;;;;2.15;1.70;;;25.20;48.20;;;;;;5093574;28;20204;-72
2021/04/11 11:29:01;;;;;;;1.13;0.80;;;25.30;48.30;;;;;;5093435;28;20592;-71
2021/04/11 11:31:36;;;;;;;2.17;1.30;;;25.60;48.00;;;;;;5093116;28;20204;-71
2021/04/11 11:34:18;;;;;;;2.05;1.25;;;25.80;47.40;;;;;;5092211;28;20240;-72
2021/04/11 11:36:53;;;;;;;4.45;1.50;;;25.90;47.20;;;;;;5091825;28;20208;-72
2021/04/11 11:39:28;;;;;;;3.40;1.33;;;25.70;47.60;;;;;;5091613;28;20235;-72
2021/04/11 11:42:04;;;;;;;2.25;1.23;;;25.80;47.10;;;;;;5092270;28;20208;-72
2021/04/11 11:44:37;;;;;;;2.22;1.42;;;25.60;47.40;;;;;;5092259;28;20228;-72
2021/04/11 11:47:15;;;;;;;3.70;1.30;;;25.40;47.60;;;;;;5091975;28;20583;-73
2021/04/11 11:49:49;;;;;;;3.78;1.27;;;25.20;48.10;;;;;;5092191;28;20203;-72
2021/04/11 11:52:21;;;;;;;8.45;1.73;;;24.80;48.40;;;;;;5091952;28;20211;-72
2021/04/11 11:54:56;;;;;;;2.60;1.38;;;24.40;48.80;;;;;;5092153;28;20235;-72
2021/04/11 11:57:27;;;;;;;3.08;1.40;;;24.00;49.90;;;;;;5093269;28;20260;-71
2021/04/11 12:00:03;;;;;;;2.10;1.10;;;23.60;50.30;;;;;;5092892;28;20273;-71
2021/04/11 12:02:49;;;;;;;3.63;1.20;;;23.30;51.20;;;;;;5093650;28;20204;-71
2021/04/11 12:05:19;;;;;;;3.65;1.30;;;22.90;51.90;;;;;;5094139;28;20211;-71
2021/04/11 12:07:56;;;;;;;2.50;1.00;;;22.70;52.10;;;;;;5092910;28;20568;-72
2021/04/11 12:10:29;;;;;;;1.08;0.98;;;22.60;52.50;;;;;;5092589;28;20215;-71
2021/04/11 12:13:17;;;;;;;3.50;1.45;;;22.40;52.70;;;;;;5093774;28;20224;-71
2021/04/11 12:15:55;;;;;;;3.83;1.33;;;22.40;53.20;;;;;;5092625;28;20234;-71
2021/04/11 12:18:25;;;;;;;2.72;1.10;;;22.40;53.40;;;;;;5092032;28;20211;-71
2021/04/11 12:21:00;;;;;;;2.63;1.40;;;22.50;53.20;;;;;;5092098;28;20208;-71
2021/04/11 12:23:32;;;;;;;2.92;1.25;;;22.70;53.40;;;;;;5092717;28;20227;-71
2021/04/11 12:26:10;;;;;;;4.03;2.85;;;23.00;53.30;;;;;;5092247;28;20660;-71
2021/04/11 12:28:38;;;;;;;2.53;1.40;;;23.20;53.80;;;;;;5091928;28;20196;-71
2021/04/11 12:31:22;;;;;;;5.47;1.25;;;23.10;55.10;;;;;;5091582;28;20218;-71
2021/04/11 12:33:56;;;;;;;2.17;1.13;;;22.70;56.40;;;;;;5091851;28;20231;-71
2021/04/11 12:36:29;;;;;;;1.90;1.00;;;22.30;56.70;;;;;;5091514;28;20204;-71
2021/04/11 12:39:02;;;;;;;2.90;1.10;;;21.90;57.10;;;;;;5092102;28;20707;-70
2021/04/11 12:41:38;;;;;;;2.80;1.20;;;21.70;57.90;;;;;;5092958;28;20272;-70
2021/04/11 12:44:17;;;;;;;1.75;0.95;;;22.00;57.10;;;;;;5092321;28;20330;-70
2021/04/11 12:46:57;;;;;;;1.65;1.00;;;22.20;56.70;;;;;;5093140;28;20204;-70
2021/04/11 12:49:29;;;;;;;2.80;1.23;;;22.40;56.40;;;;;;5092076;28;20584;-70
2021/04/11 12:52:02;;;;;;;1.50;0.90;;;22.50;56.00;;;;;;5092116;28;20215;-70
2021/04/11 12:54:34;;;;;;;2.78;1.25;;;22.70;55.50;;;;;;5091614;28;20257;-71
2021/04/11 12:57:04;;;;;;;2.35;1.50;;;22.80;54.90;;;;;;5092000;28;20213;-72
2021/04/11 12:59:36;;;;;;;4.10;1.30;;;22.90;54.70;;;;;;5091004;28;20224;-71
2021/04/11 13:02:15;;;;;;;2.47;1.20;;;22.90;54.50;;;;;;5091208;28;20208;-71
2021/04/11 13:04:46;;;;;;;2.55;1.17;;;22.80;54.20;;;;;;5094105;28;20264;-71
2021/04/11 13:07:19;;;;;;;1.27;0.98;;;22.50;53.90;;;;;;5095465;28;20675;-71
2021/04/11 13:10:02;;;;;;;3.05;1.25;;;22.30;53.80;;;;;;5094500;28;20212;-71
2021/04/11 13:12:39;;;;;;;4.50;1.38;;;22.40;53.70;;;;;;5094067;28;20660;-71
2021/04/11 13:15:18;;;;;;;2.03;1.30;;;22.50;53.50;;;;;;5094589;28;20265;-71
2021/04/11 13:17:52;;;;;;;2.00;1.17;;;22.40;54.00;;;;;;5094765;28;20211;-71
2021/04/11 13:20:22;;;;;;;3.05;1.65;;;22.40;55.00;;;;;;5094548;28;20227;-71
2021/04/11 13:22:54;;;;;;;3.13;1.38;;;22.30;54.80;;;;;;5094310;28;20245;-71
2021/04/11 13:25:31;;;;;;;2.28;1.15;;;22.20;54.70;;;;;;5094102;28;20660;-71
2021/04/11 13:28:07;;;;;;;2.45;1.23;;;22.00;56.90;;;;;;5096325;28;20207;-71
2021/04/11 13:30:38;;;;;;;2.42;1.30;;;22.00;58.10;;;;;;5098476;28;20215;-71
2021/04/11 13:33:14;;;;;;;2.95;1.17;;;21.90;59.20;;;;;;5099390;28;20330;-71
2021/04/11 13:35:45;;;;;;;2.45;1.52;;;21.90;59.30;;;;;;5099125;28;20302;-71